Observations for BREST GUIPAVAS, France (LFRB)

LFRB 182100Z AUTO 08007KT CAVOK 05/01 Q1017 NOSIG   
LFRB 182030Z AUTO 07009KT CAVOK 05/02 Q1017 NOSIG   
LFRB 182000Z AUTO 08009KT CAVOK 06/02 Q1017 NOSIG   
LFRB 181930Z AUTO 06016KT CAVOK 06/02 Q1016 NOSIG   
LFRB 181900Z AUTO 06016KT CAVOK 06/02 Q1016 NOSIG   
LFRB 181830Z AUTO 07015KT CAVOK 06/03 Q1016 NOSIG   
LFRB 181800Z AUTO 06015KT CAVOK 06/03 Q1016 NOSIG   
LFRB 181730Z AUTO 06016KT CAVOK 07/03 Q1016 NOSIG   
LFRB 181700Z AUTO 05012KT CAVOK 07/03 Q1016 NOSIG   
LFRB 181630Z AUTO 05012KT CAVOK 07/03 Q1016 NOSIG   
LFRB 181600Z AUTO 06010KT 010V070 CAVOK 08/04 Q1016 NOSIG   
LFRB 181530Z AUTO 06014KT CAVOK 09/03 Q1016 NOSIG   
LFRB 181500Z AUTO 06015KT CAVOK 10/02 Q1017 NOSIG   
LFRB 181430Z AUTO 06013KT CAVOK 10/02 Q1017 NOSIG   
LFRB 181400Z AUTO 05011KT CAVOK 10/02 Q1017 NOSIG   
LFRB 181330Z AUTO 07011KT CAVOK 11/02 Q1017 NOSIG   
LFRB 181300Z AUTO 07013KT CAVOK 11/03 Q1017 NOSIG   
LFRB 181230Z AUTO 08014KT CAVOK 10/03 Q1018 NOSIG   
LFRB 181200Z AUTO 08013KT CAVOK 10/04 Q1018 NOSIG   
LFRB 181130Z AUTO 07011KT CAVOK 10/04 Q1018 NOSIG   
LFRB 181100Z AUTO 09012KT CAVOK 09/04 Q1018 NOSIG   
LFRB 181030Z AUTO 07008KT CAVOK 08/04 Q1019 NOSIG   
LFRB 181000Z AUTO 06010KT CAVOK 07/04 Q1019 NOSIG   
LFRB 180930Z AUTO 05010KT 9000 NSC 06/04 Q1019 NOSIG
LFRB 180900Z AUTO 05008KT 8000 NSC 05/03 Q1019 NOSIG
LFRB 180830Z AUTO 04007KT 7000 NSC 05/03 Q1018 NOSIG
LFRB 180800Z AUTO 06011KT 7000 NSC 05/03 Q1018 NOSIG
LFRB 180730Z AUTO 06009KT 7000 FEW019 04/03 Q1018 NOSIG 
LFRB 180700Z AUTO 07006KT 7000 BKN011 OVC016 05/03 Q1018 BECMG NSC  
LFRB 180630Z AUTO 09010KT 8000 OVC012 04/02 Q1018 BECMG NSC 
LFRB 180600Z AUTO 07009KT 7000 OVC013 04/02 Q1018 BECMG NSC 
LFRB 180530Z AUTO 07010KT 7000 FEW016 03/01 Q1017 NOSIG 
LFRB 180500Z AUTO 06013KT 6000 NSC 03/01 Q1017 NOSIG
LFRB 180430Z AUTO 07010KT 6000 NSC 02/01 Q1017 NOSIG
LFRB 180400Z AUTO 05012KT 5000 BR NSC 02/01 Q1017 NOSIG 
LFRB 180330Z AUTO 06010KT 6000 NSC 02/01 Q1017 NOSIG
LFRB 180300Z AUTO 07012KT 6000 NSC 02/01 Q1017 NOSIG
LFRB 180230Z AUTO 08010KT 6000 NSC 02/01 Q1018 NOSIG
LFRB 180200Z AUTO 07008KT 6000 NSC 03/01 Q1017 NOSIG
LFRB 180130Z AUTO 08010KT 6000 NSC 03/01 Q1017 NOSIG
LFRB 180100Z AUTO 08009KT 6000 NSC 02/00 Q1017 NOSIG
LFRB 180030Z AUTO 07007KT 6000 NSC 03/01 Q1017 NOSIG
LFRB 180000Z AUTO 08009KT 7000 NSC 03/01 Q1018 NOSIG
LFRB 172330Z AUTO 10008KT 7000 NSC 04/01 Q1018 NOSIG
LFRB 172300Z AUTO 10008KT 7000 NSC 04/02 Q1018 NOSIG
LFRB 172230Z AUTO 09012KT 8000 NSC 04/02 Q1018 NOSIG
LFRB 172200Z AUTO 09011KT 9000 NSC 04/02 Q1018 BECMG OVC004 
LFRB 172130Z AUTO 08009KT CAVOK 04/02 Q1018 BECMG OVC004
LFRB 172100Z AUTO 09009KT CAVOK 05/02 Q1017 BECMG OVC004
LFRB 172030Z AUTO 08009KT CAVOK 05/03 Q1018 BECMG OVC004